Latest Weather Observations for Ouse

IDT60801

Issued at 7:02 pm EST Thursday 27 April 2017 (issued every 30 minutes, with the page automatically refreshed every 10 minutes)

About weather observations | Map of weather stations | Latest weather observations for TAS | Other Formats
Station Details ID: 095048 Name: OUSE FIRE STATION Lat: -42.48 Lon: 146.71 Height: 90.0 m
Data from the previous 72 hours. | See also: Recent months at Ouse
Date/Time
EST
Temp
°C
App
Temp
°C
Dew
Point
°C
Rel
Hum
%
Delta-T
°C
Wind Press
QNH
hPa
Press
MSL
hPa
Rain since
9am
mm
Dir  Spd
km/h
Gust
km/h
Spd
kts
Gust
kts
27/07:00pm 12.0 8.9 7.3 73 2.3 N 13 24 7 13 1015.4 1015.5 0.0
27/06:30pm 11.7 8.6 7.2 74 2.2 N 13 19 7 10 1015.5 1015.6 0.0
27/06:00pm 11.6 7.7 6.9 73 2.2 NNW 17 24 9 13 1015.6 1015.7 0.0
27/05:30pm 11.2 7.2 6.5 73 2.2 NNW 17 26 9 14 1015.5 1015.6 0.0
27/05:00pm 11.4 8.5 6.5 72 2.3 N 11 17 6 9 1015.8 1015.9 0.0
27/04:30pm 11.7 8.8 6.4 70 2.5 NNW 11 20 6 11 1015.8 1015.9 0.0
27/04:00pm 12.1 8.8 6.2 67 2.8 NNW 13 22 7 12 1016.0 1016.1 0.0
27/03:30pm 12.1 7.9 5.5 64 3.1 NW 17 24 9 13 1016.4 1016.4 0.0
27/03:00pm 11.8 7.5 5.2 64 3.0 NW 17 26 9 14 1016.7 1016.7 0.0
27/02:30pm 12.2 8.4 5.6 64 3.1 NW 15 24 8 13 1016.7 1016.7 0.0
27/02:00pm 11.8 7.1 5.0 63 3.1 NW 19 28 10 15 1016.5 1016.5 0.0
27/01:30pm 11.9 7.6 5.1 63 3.1 NW 17 26 9 14 1016.9 1016.9 0.0
27/01:00pm 12.2 8.1 4.4 59 3.5 NW 15 24 8 13 1017.5 1017.5 0.0
27/12:30pm 11.5 7.8 4.5 62 3.2 NW 13 20 7 11 1018.3 1018.3 0.0
27/12:00pm 11.2 7.1 4.4 63 3.1 NW 15 20 8 11 1018.5 1018.5 0.0
27/11:30am 11.0 6.9 4.2 63 3.1 NW 15 22 8 12 1018.8 1018.8 0.0
27/11:00am 11.2 7.4 4.0 61 3.2 WNW 13 20 7 11 1019.2 1019.2 0.0
27/10:30am 9.9 5.7 3.6 65 2.8 NW 15 22 8 12 1019.7 1019.7 0.0
27/10:00am 9.7 6.4 4.7 71 2.2 N 11 17 6 9 1019.7 1019.7 0.0
27/09:30am 6.8 4.4 4.1 83 1.2 NNE 6 9 3 5 1019.9 1019.9 0.0
27/09:00am 3.7 2.0 2.1 89 0.6 CALM 0 0 0 0 1019.8 1019.8 0.0
27/08:30am 2.7 1.0 1.8 94 0.4 CALM 0 0 0 0 1020.1 1020.1 0.0
27/08:00am 0.8 -1.4 0.8 100 0.0 E 2 7 1 4 1019.9 1019.9 0.0
27/07:30am 0.0 -2.0 0.0 100 0.0 CALM 0 6 0 3 1019.9 1019.9 0.0
27/07:00am -0.5 -2.6 -0.5 100 0.0 CALM 0 0 0 0 1019.9 1019.9 0.0
27/06:30am -0.5 -3.7 -0.5 100 0.0 WSW 6 9 3 5 1019.8 1019.8 0.0
27/06:00am -0.5 -3.7 -0.5 100 0.0 ESE 6 7 3 4 1019.8 1019.8 0.0
27/05:30am -0.6 -2.7 -0.7 99 0.0 CALM 0 0 0 0 1019.6 1019.6 0.0
27/05:00am -0.3 -3.7 -0.3 100 0.0 N 7 11 4 6 1019.5 1019.5 0.0
27/04:30am -0.4 -2.5 -0.5 99 0.0 CALM 0 0 0 0 1019.2 1019.2 0.0
27/04:00am -0.4 -2.5 -0.7 98 0.1 CALM 0 0 0 0 1019.0 1019.0 0.0
27/03:30am -0.1 -2.5 -0.4 98 0.1 SSW 2 7 1 4 1018.8 1018.8 0.0
27/03:00am 0.1 -1.9 -0.3 97 0.1 CALM 0 0 0 0 1018.9 1018.9 0.0
27/02:30am 0.8 -1.9 0.4 97 0.1 ESE 4 9 2 5 1019.0 1019.0 0.0
27/02:00am 1.4 -1.5 1.3 99 0.0 N 6 11 3 6 1019.1 1019.1 0.0
27/01:30am 1.2 -1.0 1.1 99 0.0 ESE 2 9 1 5 1019.0 1019.0 0.0
27/01:00am 1.1 -1.5 0.8 98 0.1 NNE 4 7 2 4 1018.8 1018.8 0.0
27/12:30am 1.4 -0.8 1.0 97 0.2 NNW 2 7 1 4 1018.7 1018.7 0.0
27/12:00am 2.0 -0.5 1.4 96 0.2 NNW 4 9 2 5 1018.6 1018.6 0.0
 
Date/Time
EST
Temp
°C
App
Temp
°C
Dew
Point
°C
Rel
Hum
%
Delta-T
°C
Wind Press
QNH
hPa
Press
MSL
hPa
Rain since
9am
mm
Dir  Spd
km/h
Gust
km/h
Spd
kts
Gust
kts
26/11:30pm 2.6 0.5 1.9 95 0.3 WSW 2 6 1 3 1018.4 1018.4 0.0
26/11:00pm 3.3 0.9 2.4 94 0.4 WSW 4 6 2 3 1018.3 1018.3 0.0
26/10:30pm 3.9 1.2 2.6 91 0.5 WSW 6 11 3 6 1018.2 1018.2 0.0
26/10:00pm 4.7 2.9 3.4 91 0.5 NNW 2 7 1 4 1017.9 1017.9 0.0
26/09:30pm 5.2 2.5 3.5 89 0.7 NNW 7 13 4 7 1017.8 1017.8 0.0
26/09:00pm 4.7 2.9 3.2 90 0.6 N 2 6 1 3 1017.4 1017.4 0.0
26/08:30pm 5.3 3.9 3.5 88 0.8 CALM 0 4 0 2 1017.2 1017.2 0.0
26/08:00pm 5.5 3.0 3.8 89 0.7 NNW 6 9 3 5 1016.8 1016.8 0.0
26/07:30pm 5.1 2.4 2.8 85 0.9 WNW 6 9 3 5 1016.2 1016.2 0.0
26/07:00pm 6.0 4.1 3.0 81 1.2 E 2 6 1 3 1015.6 1015.7 0.0
26/06:30pm 7.1 5.4 3.9 80 1.4 SSE 2 6 1 3 1014.8 1014.9 0.0
26/06:00pm 7.2 4.6 3.4 77 1.6 WNW 6 7 3 4 1014.4 1014.5 0.0
26/05:30pm 7.4 4.7 2.9 73 1.9 W 6 9 3 5 1013.6 1013.7 0.0
26/05:00pm 9.3 5.6 2.6 63 2.9 SSE 11 17 6 9 1012.9 1013.0 0.0
26/04:30pm 9.7 5.2 2.1 59 3.2 S 15 26 8 14 1012.6 1012.7 0.0
26/04:00pm 9.5 5.1 2.6 62 2.9 SSE 15 20 8 11 1012.0 1012.1 0.0
26/03:30pm 10.4 5.0 2.7 59 3.3 SSW 20 33 11 18 1011.3 1011.4 0.0
26/03:00pm 10.7 5.7 3.5 61 3.2 WSW 19 26 10 14 1010.6 1010.6 0.0
26/02:30pm 12.0 7.5 1.9 50 4.3 S 15 26 8 14 1010.1 1010.1 0.0
26/02:00pm 11.8 7.5 3.1 55 3.8 WSW 15 20 8 11 1009.8 1009.8 0.0
26/01:30pm 10.7 5.6 4.0 63 3.0 SW 20 32 11 17 1009.6 1009.6 0.0
26/01:00pm 11.5 6.4 2.8 55 3.8 W 19 28 10 15 1009.1 1009.1 0.0
26/12:30pm 11.0 5.6 2.3 55 3.7 WSW 20 33 11 18 1009.1 1009.1 0.0
26/12:00pm 12.4 6.4 3.1 53 4.1 SW 24 39 13 21 1009.0 1009.0 0.0
26/11:30am 12.2 7.1 3.2 54 4.0 WSW 19 28 10 15 1008.9 1008.9 0.0
26/11:00am 12.3 7.1 2.5 51 4.3 SW 19 28 10 15 1008.6 1008.6 0.0
26/10:30am 11.2 5.4 2.5 55 3.8 WSW 22 41 12 22 1008.4 1008.4 0.0
26/10:00am 10.7 5.3 2.3 56 3.6 SW 20 32 11 17 1008.4 1008.4 0.0
26/09:30am 9.7 5.2 2.1 59 3.2 WSW 15 26 8 14 1008.1 1008.1 0.0
26/09:00am 9.4 2.7 1.3 57 3.4 WSW 26 39 14 21 1007.8 1007.8 0.2
26/08:30am 9.1 4.6 2.0 61 3.0 W 15 22 8 12 1007.0 1007.0 0.2
26/08:00am 9.0 3.6 2.6 64 2.7 WSW 20 32 11 17 1006.6 1006.6 0.2
26/07:30am 9.0 2.9 3.0 66 2.6 SW 24 39 13 21 1005.9 1005.9 0.2
26/07:00am 9.0 3.8 3.6 69 2.4 W 20 28 11 15 1005.1 1005.1 0.2
26/06:30am 8.9 4.5 4.7 75 1.9 WNW 17 24 9 13 1004.6 1004.7 0.2
26/06:00am 8.8 5.2 5.2 78 1.6 WNW 13 22 7 12 1003.7 1003.8 0.2
26/05:30am 8.7 6.7 7.0 89 0.8 WSW 7 9 4 5 1003.2 1003.3 0.0
26/05:00am 9.4 6.2 6.7 83 1.3 SW 13 19 7 10 1002.6 1002.7 0.0
26/04:30am 9.5 5.4 6.2 80 1.5 WNW 17 24 9 13 1001.9 1001.9 0.0
26/04:00am 9.6 5.5 6.3 80 1.5 WNW 17 24 9 13 1001.3 1001.3 0.0
26/03:30am 9.7 5.2 6.1 78 1.7 WNW 19 26 10 14 1000.9 1000.9 0.0
26/03:00am 10.0 5.5 6.0 76 1.9 WNW 19 28 10 15 1000.6 1000.6 0.0
26/02:30am 10.2 6.9 6.4 77 1.8 W 13 20 7 11 1000.4 1000.4 0.0
26/02:00am 9.7 7.7 7.3 85 1.2 SSW 7 19 4 10 1000.3 1000.3 0.0
26/01:30am 8.2 5.9 7.3 94 0.4 NW 9 17 5 9 999.5 999.5 0.0
26/01:00am 7.2 5.4 7.1 99 0.0 NNW 6 7 3 4 999.3 999.3 0.0
26/12:30am 6.8 4.7 6.7 99 0.0 NW 7 9 4 5 999.1 999.1 0.0
26/12:00am 5.9 3.8 5.9 100 0.0 NNW 6 11 3 6 999.0 999.0 0.0
 
Date/Time
EST
Temp
°C
App
Temp
°C
Dew
Point
°C
Rel
Hum
%
Delta-T
°C
Wind Press
QNH
hPa
Press
MSL
hPa
Rain since
9am
mm
Dir  Spd
km/h
Gust
km/h
Spd
kts
Gust
kts
25/11:30pm 5.7 3.6 5.6 99 0.0 N 6 7 3 4 998.9 998.9 0.0
25/11:00pm 5.9 3.2 5.8 99 0.0 N 9 11 5 6 999.1 999.1 0.0
25/10:30pm 6.2 3.6 5.9 98 0.1 N 9 11 5 6 999.1 999.1 0.0
25/10:00pm 6.8 3.9 6.5 98 0.1 N 11 15 6 8 999.4 999.4 0.0
25/09:30pm 7.6 5.1 6.4 92 0.6 NNW 9 13 5 7 999.6 999.6 0.0
25/09:00pm 7.8 5.7 6.6 92 0.6 N 7 9 4 5 999.8 999.8 0.0
25/08:30pm 9.1 6.9 8.0 93 0.5 N 9 13 5 7 999.9 999.9 0.0
25/08:00pm 8.5 6.2 7.4 93 0.5 NNW 9 15 5 8 1000.0 1000.0 0.0
25/07:30pm 9.2 5.8 7.6 90 0.8 NNW 15 17 8 9 1000.1 1000.1 0.0
25/07:00pm 9.2 7.0 8.0 92 0.6 NW 9 11 5 6 1000.1 1000.1 0.0
25/06:30pm 10.7 8.7 8.6 87 1.0 NNW 9 11 5 6 999.9 999.9 0.0
25/06:00pm 11.6 11.0 8.8 83 1.4 NNW 2 7 1 4 999.8 999.8 0.0
25/05:30pm 12.5 10.8 8.2 75 2.1 NNW 7 9 4 5 999.7 999.7 0.0
25/05:00pm 14.4 12.6 8.1 66 3.2 NW 7 11 4 6 1000.0 1000.0 0.0
25/04:30pm 15.2 12.6 7.7 61 3.7 WNW 11 15 6 8 1000.2 1000.2 0.0
25/04:00pm 15.7 13.6 8.4 62 3.7 NW 9 17 5 9 1000.2 1000.2 0.0
25/03:30pm 15.7 12.8 8.2 61 3.8 W 13 19 7 10 1000.4 1000.4 0.0
25/03:00pm 16.3 12.7 8.5 60 4.0 W 17 26 9 14 1000.5 1000.5 0.0
25/02:30pm 16.9 12.8 7.8 55 4.6 WNW 19 28 10 15 1000.8 1000.8 0.0
25/02:00pm 16.1 13.1 9.1 63 3.6 WNW 15 26 8 14 1000.9 1000.9 0.0
25/01:30pm 17.3 13.8 10.2 63 3.8 WSW 19 28 10 15 1001.1 1001.1 0.0
25/01:00pm 17.4 15.1 10.3 63 3.8 W 13 20 7 11 1001.6 1001.6 0.0
25/12:30pm 15.6 14.0 11.6 77 2.2 N 11 19 6 10 1002.3 1002.4 0.0
25/12:00pm 14.9 14.3 13.6 92 0.7 NNE 9 11 5 6 1003.0 1003.1 0.0
25/11:30am 14.0 15.0 13.2 95 0.4 CALM 0 0 0 0 1003.6 1003.7 0.0
25/11:00am 13.6 13.3 12.8 95 0.4 N 6 9 3 5 1004.1 1004.2 0.0
25/10:30am 13.2 13.8 13.2 100 0.0 NNE 2 7 1 4 1004.5 1004.6 0.0
25/10:00am 12.7 12.4 12.7 100 0.0 N 6 7 3 4 1005.0 1005.0 0.0
25/09:30am 12.6 12.3 12.6 100 0.0 N 6 9 3 5 1005.6 1005.6 0.0
25/09:00am 12.4 12.4 12.4 100 0.0 N 4 6 2 3 1006.0 1006.0 1.0
25/08:30am 12.0 12.2 12.0 100 0.0 N 2 7 1 4 1006.2 1006.2 1.0
25/08:00am 11.7 10.9 11.7 100 0.0 N 7 9 4 5 1006.3 1006.3 1.0
25/07:30am 11.7 11.1 11.7 100 0.0 N 6 7 3 4 1006.3 1006.3 1.0
25/07:00am 11.7 10.9 11.7 100 0.0 N 7 9 4 5 1006.5 1006.5 1.0
25/06:30am 11.5 10.6 11.5 100 0.0 N 7 9 4 5 1006.4 1006.4 1.0
25/06:00am 11.5 11.2 11.5 100 0.0 N 4 6 2 3 1006.4 1006.4 1.0
25/05:30am 11.4 10.7 11.4 100 0.0 NNW 6 6 3 3 1006.5 1006.5 1.0
25/05:00am 11.3 11.7 11.3 100 0.0 CALM 0 0 0 0 1006.8 1006.8 1.0
25/04:30am 11.3 11.0 11.3 100 0.0 N 4 6 2 3 1007.3 1007.3 1.0
25/04:00am 11.3 11.7 11.3 100 0.0 CALM 0 0 0 0 1007.5 1007.5 1.0
25/03:30am 11.4 11.8 11.4 100 0.0 CALM 0 0 0 0 1007.9 1007.9 1.0
25/03:00am 11.5 12.0 11.5 100 0.0 CALM 0 0 0 0 1008.2 1008.2 1.0
25/02:30am 11.6 12.1 11.6 100 0.0 CALM 0 2 0 1 1008.6 1008.6 0.8
25/02:00am 12.0 12.2 12.0 100 0.0 WNW 2 6 1 3 1009.2 1009.2 0.8
25/01:30am 12.1 12.8 12.1 100 0.0 CALM 0 0 0 0 1009.6 1009.6 0.8
25/01:00am 12.1 12.8 12.1 100 0.0 CALM 0 0 0 0 1009.9 1009.9 0.8
25/12:30am 12.0 11.9 12.0 100 0.0 SE 4 7 2 4 1010.5 1010.5 0.8
25/12:00am 11.9 12.5 11.9 100 0.0 CALM 0 0 0 0 1010.9 1010.9 0.8
 
Date/Time
EST
Temp
°C
App
Temp
°C
Dew
Point
°C
Rel
Hum
%
Delta-T
°C
Wind Press
QNH
hPa
Press
MSL
hPa
Rain since
9am
mm
Dir  Spd
km/h
Gust
km/h
Spd
kts
Gust
kts
24/11:30pm 12.2 11.6 12.2 100 0.0 NNW 7 9 4 5 1011.4 1011.5 0.8
24/11:00pm 12.6 12.7 12.6 100 0.0 S 4 6 2 3 1011.7 1011.8 0.8
24/10:30pm 12.6 11.7 12.6 100 0.0 SE 9 11 5 6 1012.3 1012.4 0.8
24/10:00pm 12.8 12.5 12.8 100 0.0 W 6 9 3 5 1012.6 1012.7 0.8
24/09:30pm 13.2 14.2 13.2 100 0.0 CALM 0 6 0 3 1012.6 1012.7 0.8
24/09:00pm 13.4 14.5 13.4 100 0.0 CALM 0 0 0 0 1013.2 1013.3 0.8
24/08:30pm 13.3 13.2 13.3 100 0.0 NNW 6 9 3 5 1013.1 1013.2 0.8
24/08:00pm 13.3 13.2 13.3 100 0.0 N 6 9 3 5 1013.5 1013.6 0.6
24/07:30pm 13.1 12.9 13.1 100 0.0 NNE 6 6 3 3 1013.8 1013.9 0.6

Other Formats:

Comma delimited format used in spreadsheet applications
http://www.bom.gov.au/fwo/IDT60801/IDT60801.94957.axf

JavaScript Object Notation format (JSON) in row-major order
http://www.bom.gov.au/fwo/IDT60801/IDT60801.94957.json